createdAt,value
2018-09-12T00:01:08.023Z,99364.48
2018-09-12T00:03:36.183Z,99366.38
2018-09-12T00:06:04.280Z,99364.98
2018-09-12T00:08:32.427Z,99362.59
2018-09-12T00:11:00.463Z,99359.05
2018-09-12T00:13:28.577Z,99358.96
2018-09-12T00:15:56.679Z,99355.75
2018-09-12T00:18:24.788Z,99351.14
2018-09-12T00:20:52.895Z,99356.13
2018-09-12T00:23:21.010Z,99348.18
2018-09-12T00:25:49.104Z,99345.84
2018-09-12T00:28:17.224Z,99339.20
2018-09-12T00:30:45.347Z,99343.00
2018-09-12T00:33:13.463Z,99334.50
2018-09-12T00:35:41.555Z,99333.68
2018-09-12T00:38:09.633Z,99335.00
2018-09-12T00:40:37.696Z,99335.95
2018-09-12T00:43:05.801Z,99331.66
2018-09-12T00:45:34.923Z,99331.09
2018-09-12T00:48:03.023Z,99326.05
2018-09-12T00:50:31.113Z,99324.47
2018-09-12T00:52:59.212Z,99326.16
2018-09-12T00:55:27.287Z,99328.64
2018-09-12T00:57:55.403Z,99317.01
2018-09-12T01:00:23.550Z,99323.65
2018-09-12T01:02:51.659Z,99322.37
2018-09-12T01:05:19.739Z,99323.61
2018-09-12T01:07:47.830Z,99319.73
2018-09-12T01:10:15.924Z,99317.20
2018-09-12T01:12:45.071Z,99314.86
2018-09-12T01:15:13.146Z,99310.10
2018-09-12T01:17:41.250Z,99308.72
2018-09-12T01:20:09.349Z,99295.20
2018-09-12T01:22:37.706Z,99294.47
2018-09-12T01:25:06.186Z,99287.23
2018-09-12T01:27:34.293Z,99295.48
2018-09-12T01:30:02.415Z,99289.86
2018-09-12T01:32:30.512Z,99284.48
2018-09-12T01:34:58.595Z,99290.00
2018-09-12T01:37:26.836Z,99287.13
2018-09-12T01:39:54.928Z,99283.80
2018-09-12T01:42:23.020Z,99284.78
2018-09-12T01:44:51.255Z,99279.80
2018-09-12T01:47:19.343Z,99277.52
2018-09-12T01:49:47.793Z,99279.73
2018-09-12T01:52:15.912Z,99280.27
2018-09-12T01:54:43.988Z,99276.91
2018-09-12T01:57:12.069Z,99280.55
2018-09-12T01:59:40.119Z,99276.82
2018-09-12T02:02:08.238Z,99278.09
2018-09-12T02:04:36.345Z,99278.23
2018-09-12T02:07:04.435Z,99279.02
2018-09-12T02:09:32.528Z,99279.83
2018-09-12T02:12:00.604Z,99280.81
2018-09-12T02:14:28.691Z,99273.27
2018-09-12T02:16:56.774Z,99275.16
2018-09-12T02:19:24.864Z,99267.94
2018-09-12T02:21:53.105Z,99269.69
2018-09-12T02:24:21.248Z,99259.23
2018-09-12T02:26:49.338Z,99260.23
2018-09-12T02:29:17.468Z,99262.75
2018-09-12T02:31:45.576Z,99259.06
2018-09-12T02:34:13.643Z,99261.75
2018-09-12T02:36:41.740Z,99261.14
2018-09-12T02:39:09.874Z,99252.30
2018-09-12T02:41:38.661Z,99257.56
2018-09-12T02:44:06.824Z,99249.29
2018-09-12T02:46:34.954Z,99248.53
2018-09-12T02:49:03.239Z,99254.09
2018-09-12T02:51:31.363Z,99253.39
2018-09-12T02:53:59.459Z,99247.63
2018-09-12T02:56:27.591Z,99254.63
2018-09-12T02:58:55.751Z,99250.56
2018-09-12T03:01:23.925Z,99255.31
2018-09-12T03:03:52.035Z,99251.09
2018-09-12T03:06:20.267Z,99259.48
2018-09-12T03:08:48.504Z,99255.96
2018-09-12T03:11:16.693Z,99248.72
2018-09-12T03:13:44.795Z,99253.80
2018-09-12T03:16:12.905Z,99255.46
2018-09-12T03:18:41.074Z,99258.14
2018-09-12T03:21:09.950Z,99255.77
2018-09-12T03:23:38.010Z,99251.25
2018-09-12T03:26:06.123Z,99249.83
2018-09-12T03:28:34.232Z,99256.77
2018-09-12T03:31:02.646Z,99252.30
2018-09-12T03:33:30.623Z,99248.34
2018-09-12T03:35:58.734Z,99253.39
2018-09-12T03:38:26.855Z,99252.09
2018-09-12T03:40:54.970Z,99252.23
2018-09-12T03:43:23.126Z,99248.64
2018-09-12T03:45:51.292Z,99242.86
2018-09-12T03:48:19.398Z,99244.89
2018-09-12T03:50:47.500Z,99241.77
2018-09-12T03:53:15.610Z,99242.98
2018-09-12T03:55:43.715Z,99242.86
2018-09-12T03:58:11.860Z,99241.44
2018-09-12T04:00:41.030Z,99244.58
2018-09-12T04:03:09.184Z,99242.41
2018-09-12T04:05:37.282Z,99241.20
2018-09-12T04:08:05.414Z,99242.25
2018-09-12T04:10:33.522Z,99235.47
2018-09-12T04:13:01.696Z,99240.98
2018-09-12T04:15:29.812Z,99242.44
2018-09-12T04:17:57.924Z,99246.66
2018-09-12T04:20:26.027Z,99245.71
2018-09-12T04:22:54.152Z,99239.72
2018-09-12T04:25:22.259Z,99235.42
2018-09-12T04:27:50.377Z,99240.45
2018-09-12T04:30:18.470Z,99245.11
2018-09-12T04:32:46.568Z,99243.52
2018-09-12T04:35:14.726Z,99244.39
2018-09-12T04:37:42.827Z,99238.90
2018-09-12T04:40:10.943Z,99245.05
2018-09-12T04:42:39.045Z,99237.95
2018-09-12T04:45:07.191Z,99236.77
2018-09-12T04:47:35.287Z,99239.27
2018-09-12T04:50:03.432Z,99239.41
2018-09-12T04:52:31.611Z,99243.09
2018-09-12T04:54:59.722Z,99242.83
2018-09-12T04:57:27.792Z,99239.61
2018-09-12T04:59:55.905Z,99242.17
2018-09-12T05:02:24.000Z,99240.95
2018-09-12T05:04:52.191Z,99243.72
2018-09-12T05:07:20.319Z,99241.91
2018-09-12T05:09:48.416Z,99244.26
2018-09-12T05:12:16.532Z,99249.35
2018-09-12T05:14:44.640Z,99247.16
2018-09-12T05:17:12.736Z,99251.49
2018-09-12T05:19:40.846Z,99248.98
2018-09-12T05:22:09.220Z,99240.04
2018-09-12T05:24:37.330Z,99249.33
2018-09-12T05:27:05.607Z,99249.91
2018-09-12T05:29:33.723Z,99252.78
2018-09-12T05:32:01.917Z,99251.59
2018-09-12T05:34:30.047Z,99251.83
2018-09-12T05:36:58.169Z,99241.84
2018-09-12T05:39:26.293Z,99243.61
2018-09-12T05:41:54.385Z,99239.41
2018-09-12T05:44:22.471Z,99241.55
2018-09-12T05:46:50.555Z,99232.13
2018-09-12T05:49:18.628Z,99239.77
2018-09-12T05:51:46.718Z,99234.41
2018-09-12T05:54:15.768Z,99233.47
2018-09-12T05:56:43.850Z,99237.67
2018-09-12T05:59:11.966Z,99231.55
2018-09-12T06:01:40.041Z,99232.09
2018-09-12T06:04:08.155Z,99226.52
2018-09-12T06:06:36.289Z,99232.61
2018-09-12T06:09:06.052Z,99234.66
2018-09-12T06:11:34.229Z,99235.58
2018-09-12T06:14:02.404Z,99233.48
2018-09-12T06:16:30.435Z,99236.55
2018-09-12T06:18:58.566Z,99232.33
2018-09-12T06:21:26.924Z,99232.30
2018-09-12T06:23:55.024Z,99239.00
2018-09-12T06:26:23.124Z,99240.73
2018-09-12T06:28:51.200Z,99237.67
2018-09-12T06:31:19.295Z,99235.95
2018-09-12T06:33:47.572Z,99236.09
2018-09-12T06:36:15.687Z,99232.36
2018-09-12T06:38:43.847Z,99232.83
2018-09-12T06:41:11.875Z,99229.06
2018-09-12T06:43:40.088Z,99223.75
2018-09-12T06:46:08.219Z,99218.52
2018-09-12T06:48:36.303Z,99233.09
2018-09-12T06:51:04.406Z,99223.98
2018-09-12T06:53:32.490Z,99213.81
2018-09-12T06:56:00.587Z,99218.02
2018-09-12T06:58:28.675Z,99217.91
2018-09-12T07:00:56.818Z,99220.07
2018-09-12T07:03:24.850Z,99219.28
2018-09-12T07:05:52.920Z,99215.74
2018-09-12T07:08:21.067Z,99219.00
2018-09-12T07:10:49.163Z,99218.11
2018-09-12T07:13:17.266Z,99219.41
2018-09-12T07:15:45.443Z,99215.47
2018-09-12T07:18:13.560Z,99222.89
2018-09-12T07:20:41.678Z,99217.87
2018-09-12T07:23:09.795Z,99221.91
2018-09-12T07:25:37.947Z,99219.10
2018-09-12T07:28:06.140Z,99212.98
2018-09-12T07:30:34.263Z,99220.03
2018-09-12T07:33:02.280Z,99208.92
2018-09-12T07:35:30.357Z,99214.98
2018-09-12T07:37:58.475Z,99201.50
2018-09-12T07:40:26.630Z,99216.34
2018-09-12T07:42:54.719Z,99209.83
2018-09-12T07:45:22.797Z,99222.16
2018-09-12T07:47:51.009Z,99221.98
2018-09-12T07:50:19.095Z,99221.48
2018-09-12T07:52:47.186Z,99226.28
2018-09-12T07:55:15.273Z,99226.41
2018-09-12T07:57:43.346Z,99227.16
2018-09-12T08:00:11.515Z,99217.45
2018-09-12T08:02:39.546Z,99217.02
2018-09-12T08:05:07.733Z,99211.64
2018-09-12T08:07:35.731Z,99207.14
2018-09-12T08:10:03.902Z,99204.08
2018-09-12T08:12:32.000Z,99195.62
2018-09-12T08:15:01.010Z,99204.45
2018-09-12T08:17:29.127Z,99202.88
2018-09-12T08:19:57.234Z,99200.31
2018-09-12T08:22:25.465Z,99196.10
2018-09-12T08:24:53.561Z,99202.75
2018-09-12T08:27:21.631Z,99198.23
2018-09-12T08:29:49.723Z,99201.66
2018-09-12T08:32:17.871Z,99204.28
2018-09-12T08:34:45.971Z,99203.06
2018-09-12T08:37:14.071Z,99202.31
2018-09-12T08:39:42.151Z,99198.30
2018-09-12T08:42:10.259Z,99197.22
2018-09-12T08:44:38.334Z,99194.97
2018-09-12T08:47:06.451Z,99199.73
2018-09-12T08:49:34.545Z,99190.19
2018-09-12T08:52:02.991Z,99192.09
2018-09-12T08:54:31.095Z,99200.34
2018-09-12T08:56:59.220Z,99200.17
2018-09-12T08:59:27.311Z,99194.92
2018-09-12T09:02:02.119Z,99196.13
2018-09-12T09:04:30.224Z,99189.91
2018-09-12T09:06:58.306Z,99187.45
2018-09-12T09:09:26.400Z,99190.27
2018-09-12T09:11:55.001Z,99189.84
2018-09-12T09:14:23.104Z,99188.67
2018-09-12T09:16:51.187Z,99189.69
2018-09-12T09:19:19.296Z,99189.48
2018-09-12T09:21:47.364Z,99191.13
2018-09-12T09:24:15.499Z,99184.50
2018-09-12T09:26:43.613Z,99188.19
2018-09-12T09:29:11.739Z,99178.44
2018-09-12T09:31:39.856Z,99183.50
2018-09-12T09:34:07.932Z,99186.08
2018-09-12T09:36:36.004Z,99183.67
2018-09-12T09:39:06.243Z,99175.08
2018-09-12T09:41:34.362Z,99173.47
2018-09-12T09:44:02.528Z,99172.56
2018-09-12T09:46:30.606Z,99177.96
2018-09-12T09:48:58.731Z,99174.00
2018-09-12T09:51:26.837Z,99177.25
2018-09-12T09:53:54.938Z,99181.11
2018-09-12T09:56:23.112Z,99175.25
2018-09-12T09:58:51.221Z,99177.44
2018-09-12T10:01:24.656Z,99169.28
2018-09-12T10:03:58.187Z,99169.16
2018-09-12T10:07:04.180Z,99166.80
2018-09-12T10:09:33.477Z,99161.04
2018-09-12T10:12:02.577Z,99166.45
2018-09-12T10:14:30.669Z,99156.70
2018-09-12T10:16:58.801Z,99166.77
2018-09-12T10:19:26.875Z,99162.17
2018-09-12T10:21:54.992Z,99161.11
2018-09-12T10:24:23.216Z,99167.47
2018-09-12T10:26:51.284Z,99154.29
2018-09-12T10:29:19.462Z,99157.20
2018-09-12T10:31:47.984Z,99158.61
2018-09-12T10:34:16.120Z,99151.14
2018-09-12T10:36:44.224Z,99149.20
2018-09-12T10:39:13.725Z,99148.45
2018-09-12T10:41:42.616Z,99144.55
2018-09-12T10:44:10.927Z,99142.54
2018-09-12T10:46:39.237Z,99142.17
2018-09-12T10:49:07.756Z,99135.88
2018-09-12T10:51:35.839Z,99130.56
2018-09-12T10:54:03.948Z,99137.55
2018-09-12T10:56:38.927Z,99140.13
2018-09-12T10:59:07.134Z,99130.88
2018-09-12T11:01:35.228Z,99129.70
2018-09-12T11:04:03.339Z,99121.06
2018-09-12T11:06:31.443Z,99130.20
2018-09-12T11:08:59.531Z,99122.14
2018-09-12T11:11:28.299Z,99117.17
2018-09-12T11:13:57.664Z,99114.01
2018-09-12T11:16:25.780Z,99107.64
2018-09-12T11:18:53.970Z,99115.77
2018-09-12T11:21:22.075Z,99109.13
2018-09-12T11:23:50.271Z,99097.41
2018-09-12T11:26:18.281Z,99103.27
2018-09-12T11:28:46.393Z,99103.25
2018-09-12T11:31:14.515Z,99099.02
2018-09-12T11:33:43.018Z,99090.15
2018-09-12T11:36:12.161Z,99095.09
2018-09-12T11:38:40.305Z,99087.48
2018-09-12T11:41:08.674Z,99096.05
2018-09-12T11:43:36.757Z,99091.21
2018-09-12T11:46:04.887Z,99089.08
2018-09-12T11:48:32.970Z,99092.08
2018-09-12T11:51:01.096Z,99090.07
2018-09-12T11:53:29.529Z,99076.96
2018-09-12T11:55:57.641Z,99081.42
2018-09-12T11:58:25.776Z,99068.86
2018-09-12T12:00:53.998Z,99071.96
2018-09-12T12:03:22.119Z,99066.87
2018-09-12T12:05:50.211Z,99067.31
2018-09-12T12:08:18.372Z,99066.89
2018-09-12T12:10:46.465Z,99052.66
2018-09-12T12:13:14.615Z,99052.57
2018-09-12T12:15:42.763Z,99057.47
2018-09-12T12:18:10.868Z,99052.52
2018-09-12T12:20:40.037Z,99050.63
2018-09-12T12:23:08.213Z,99048.58
2018-09-12T12:25:36.271Z,99052.79
2018-09-12T12:28:04.391Z,99046.89
2018-09-12T12:30:32.519Z,99043.45
2018-09-12T12:33:00.690Z,99042.86
2018-09-12T12:35:28.903Z,99040.16
2018-09-12T12:37:56.952Z,99028.95
2018-09-12T12:40:25.040Z,99029.03
2018-09-12T12:42:53.148Z,99018.36
2018-09-12T12:45:21.265Z,99009.48
2018-09-12T12:47:49.363Z,99010.23
2018-09-12T12:50:17.451Z,99002.67
2018-09-12T12:52:45.675Z,99007.61
2018-09-12T12:55:13.837Z,99002.38
2018-09-12T12:57:41.955Z,98995.30
2018-09-12T13:00:10.208Z,98996.86
2018-09-12T13:02:38.317Z,98991.79
2018-09-12T13:05:06.492Z,98988.03
2018-09-12T13:07:34.591Z,98987.54
2018-09-12T13:10:02.850Z,98978.34
2018-09-12T13:12:31.964Z,98979.39
2018-09-12T13:15:00.064Z,98978.16
2018-09-12T13:17:28.164Z,98974.13
2018-09-12T13:19:56.310Z,98965.87
2018-09-12T13:22:24.445Z,98967.66
2018-09-12T13:24:52.594Z,98968.44
2018-09-12T13:27:20.802Z,98966.69
2018-09-12T13:29:48.906Z,98966.25
2018-09-12T13:32:16.991Z,98960.09
2018-09-12T13:34:45.105Z,98952.69
2018-09-12T13:37:13.207Z,98963.41
2018-09-12T13:39:41.324Z,98951.91
2018-09-12T13:42:09.437Z,98948.33
2018-09-12T13:44:37.560Z,98941.53
2018-09-12T13:47:05.733Z,98939.73
2018-09-12T13:49:33.846Z,98933.11
2018-09-12T13:52:01.940Z,98933.75
2018-09-12T13:54:30.088Z,98931.10
2018-09-12T13:56:58.209Z,98926.56
2018-09-12T13:59:26.312Z,98913.16
2018-09-12T14:01:54.411Z,98923.94
2018-09-12T14:04:23.204Z,98918.06
2018-09-12T14:06:52.207Z,98918.59
2018-09-12T14:09:20.327Z,98915.92
2018-09-12T14:11:48.417Z,98918.68
2018-09-12T14:14:17.128Z,98906.78
2018-09-12T14:16:45.336Z,98912.73
2018-09-12T14:19:13.452Z,98910.20
2018-09-12T14:21:41.580Z,98904.48
2018-09-12T14:24:09.735Z,98899.47
2018-09-12T14:26:37.831Z,98900.31
2018-09-12T14:29:05.931Z,98900.19
2018-09-12T14:31:34.548Z,98889.95
2018-09-12T14:34:02.667Z,98893.08
2018-09-12T14:36:30.852Z,98885.45
2018-09-12T14:38:59.026Z,98888.29
2018-09-12T14:41:27.100Z,98887.92
2018-09-12T14:43:55.226Z,98883.59
2018-09-12T14:46:23.336Z,98878.92
2018-09-12T14:48:58.193Z,98878.98
2018-09-12T14:51:26.291Z,98873.97
2018-09-12T14:53:54.508Z,98877.16
2018-09-12T14:56:22.624Z,98875.58
2018-09-12T14:58:51.008Z,98865.61
2018-09-12T15:01:19.099Z,98875.64
2018-09-12T15:03:47.271Z,98874.64
2018-09-12T15:06:15.394Z,98868.00
2018-09-12T15:08:43.490Z,98870.47
2018-09-12T15:11:11.599Z,98868.38
2018-09-12T15:13:39.704Z,98862.86
2018-09-12T15:16:07.820Z,98874.64
2018-09-12T15:18:36.123Z,98875.08
2018-09-12T15:21:04.295Z,98867.59
2018-09-12T15:23:32.425Z,98866.59
2018-09-12T15:26:00.539Z,98867.43
2018-09-12T15:28:28.617Z,98864.22
2018-09-12T15:30:56.728Z,98866.81
2018-09-12T15:33:24.824Z,98861.52
2018-09-12T15:35:52.999Z,98867.00
2018-09-12T15:38:21.103Z,98860.33
2018-09-12T15:40:49.279Z,98858.71
2018-09-12T15:43:17.468Z,98853.95
2018-09-12T15:45:45.656Z,98853.48
2018-09-12T15:48:13.736Z,98855.16
2018-09-12T15:50:41.903Z,98850.17
2018-09-12T15:53:10.016Z,98847.09
2018-09-12T15:55:38.177Z,98850.26
2018-09-12T15:58:06.271Z,98848.63
2018-09-12T16:00:34.365Z,98838.39
2018-09-12T16:03:02.515Z,98839.98
2018-09-12T16:05:30.724Z,98837.55
2018-09-12T16:07:59.197Z,98828.59
2018-09-12T16:10:27.332Z,98827.48
2018-09-12T16:12:55.432Z,98827.41
2018-09-12T16:15:23.585Z,98821.72
2018-09-12T16:17:51.646Z,98817.98
2018-09-12T16:20:19.777Z,98811.45
2018-09-12T16:22:47.911Z,98807.30
2018-09-12T16:25:16.023Z,98804.15
2018-09-12T16:27:44.123Z,98809.71
2018-09-12T16:30:12.374Z,98801.81
2018-09-12T16:32:40.543Z,98807.89
2018-09-12T16:35:08.818Z,98806.39
2018-09-12T16:37:36.924Z,98802.84
2018-09-12T16:40:05.835Z,98801.84
2018-09-12T16:42:34.243Z,98800.16
2018-09-12T16:45:02.333Z,98793.27
2018-09-12T16:47:30.448Z,98792.16
2018-09-12T16:49:58.535Z,98798.19
2018-09-12T16:52:26.635Z,98796.56
2018-09-12T16:54:54.724Z,98793.77
2018-09-12T16:57:22.841Z,98800.22
2018-09-12T16:59:50.937Z,98801.97
2018-09-12T17:02:19.088Z,98800.45
2018-09-12T17:04:47.152Z,98802.56
2018-09-12T17:07:15.250Z,98802.29
2018-09-12T17:09:43.306Z,98795.30
2018-09-12T17:12:11.379Z,98802.13
2018-09-12T17:14:39.917Z,98806.43
2018-09-12T17:17:08.051Z,98803.80
2018-09-12T17:19:36.222Z,98803.38
2018-09-12T17:22:04.344Z,98799.34
2018-09-12T17:24:32.431Z,98804.14
2018-09-12T17:27:00.501Z,98807.14
2018-09-12T17:29:28.595Z,98801.11
2018-09-12T17:31:56.686Z,98804.06
2018-09-12T17:34:24.784Z,98800.84
2018-09-12T17:36:52.896Z,98805.20
2018-09-12T17:39:21.027Z,98811.98
2018-09-12T17:41:49.143Z,98809.54
2018-09-12T17:44:17.245Z,98812.30
2018-09-12T17:46:45.347Z,98806.68
2018-09-12T17:49:13.451Z,98814.42
2018-09-12T17:51:41.559Z,98817.36
2018-09-12T17:54:09.731Z,98812.81
2018-09-12T17:56:37.840Z,98809.50
2018-09-12T17:59:05.936Z,98811.70
2018-09-12T18:01:34.027Z,98805.59
2018-09-12T18:04:03.080Z,98812.69
2018-09-12T18:06:31.216Z,98815.09
2018-09-12T18:08:59.427Z,98809.36
2018-09-12T18:11:27.969Z,98814.88
2018-09-12T18:13:56.126Z,98811.73
2018-09-12T18:16:25.123Z,98816.05
2018-09-12T18:18:53.247Z,98821.67
2018-09-12T18:21:21.619Z,98827.30
2018-09-12T18:23:49.718Z,98830.04
2018-09-12T18:26:17.851Z,98829.03
2018-09-12T18:28:45.957Z,98837.30
2018-09-12T18:31:14.159Z,98829.62
2018-09-12T18:33:42.808Z,98829.22
2018-09-12T18:36:11.063Z,98839.66
2018-09-12T18:38:39.112Z,98828.92
2018-09-12T18:41:07.219Z,98826.05
2018-09-12T18:43:35.344Z,98818.31
2018-09-12T18:46:03.443Z,98827.73
2018-09-12T18:48:31.544Z,98826.82
2018-09-12T18:51:03.813Z,98823.91
2018-09-12T18:53:31.927Z,98831.88
2018-09-12T18:56:00.045Z,98831.18
2018-09-12T18:58:28.174Z,98834.27
2018-09-12T19:00:56.284Z,98835.21
2018-09-12T19:03:24.449Z,98834.19
2018-09-12T19:05:52.490Z,98835.14
2018-09-12T19:08:20.674Z,98844.73
2018-09-12T19:10:49.227Z,98838.44
2018-09-12T19:13:17.427Z,98840.91
2018-09-12T19:15:45.690Z,98848.16
2018-09-12T19:18:14.536Z,98844.22
2018-09-12T19:20:42.879Z,98842.37
2018-09-12T19:23:10.988Z,98850.32
2018-09-12T19:25:39.148Z,98853.20
2018-09-12T19:28:07.228Z,98853.56
2018-09-12T19:30:35.390Z,98857.80
2018-09-12T19:33:03.496Z,98868.09
2018-09-12T19:35:31.621Z,98862.88
2018-09-12T19:38:00.933Z,98868.88
2018-09-12T19:40:29.040Z,98873.03
2018-09-12T19:42:57.166Z,98870.65
2018-09-12T19:45:25.352Z,98866.33
2018-09-12T19:47:53.628Z,98874.38
2018-09-12T19:50:21.733Z,98876.56
2018-09-12T19:52:49.876Z,98876.86
2018-09-12T19:55:18.014Z,98879.24
2018-09-12T19:57:46.944Z,98874.89
2018-09-12T20:00:17.280Z,98872.74
2018-09-12T20:02:46.200Z,98878.07
2018-09-12T20:05:14.339Z,98876.44
2018-09-12T20:07:42.501Z,98866.50
2018-09-12T20:10:10.643Z,98872.91
2018-09-12T20:12:38.745Z,98870.10
2018-09-12T20:15:07.000Z,98873.16
2018-09-12T20:17:35.144Z,98867.19
2018-09-12T20:20:03.256Z,98883.98
2018-09-12T20:22:31.559Z,98892.70
2018-09-12T20:24:59.671Z,98906.75
2018-09-12T20:27:27.871Z,98899.65
2018-09-12T20:29:55.999Z,98895.23
2018-09-12T20:32:24.103Z,98892.95
2018-09-12T20:34:52.306Z,98886.81
2018-09-12T20:37:20.427Z,98900.08
2018-09-12T20:39:48.546Z,98903.08
2018-09-12T20:42:16.652Z,98907.52
2018-09-12T20:44:44.784Z,98905.55
2018-09-12T20:47:12.909Z,98913.41
2018-09-12T20:49:41.218Z,98913.45
2018-09-12T20:52:09.384Z,98908.42
2018-09-12T20:54:37.523Z,98907.02
2018-09-12T20:57:05.755Z,98903.84
2018-09-12T20:59:33.959Z,98896.06
2018-09-12T21:02:02.144Z,98898.61
2018-09-12T21:04:30.245Z,98906.21
2018-09-12T21:06:58.470Z,98905.08
2018-09-12T21:09:26.563Z,98901.45
2018-09-12T21:11:54.663Z,98911.00
2018-09-12T21:14:22.779Z,98909.59
2018-09-12T21:16:50.883Z,98906.88
2018-09-12T21:19:19.602Z,98901.55
2018-09-12T21:21:47.719Z,98899.77
2018-09-12T21:24:15.962Z,98896.26
2018-09-12T21:26:44.047Z,98892.26
2018-09-12T21:29:12.135Z,98897.04
2018-09-12T21:31:41.063Z,98895.70
2018-09-12T21:34:09.198Z,98890.33
2018-09-12T21:36:37.311Z,98895.76
2018-09-12T21:39:08.447Z,98893.72
2018-09-12T21:41:36.547Z,98902.25
2018-09-12T21:44:04.656Z,98899.27
2018-09-12T21:46:32.820Z,98895.31
2018-09-12T21:49:00.932Z,98889.46
2018-09-12T21:51:29.348Z,98887.48
2018-09-12T21:53:57.510Z,98901.83
2018-09-12T21:56:25.642Z,98897.67
2018-09-12T21:58:53.819Z,98899.56
2018-09-12T22:13:11.102Z,98885.80
2018-09-12T22:15:39.426Z,98891.34
2018-09-12T22:18:07.608Z,98884.56
2018-09-12T22:20:35.747Z,98884.83
2018-09-12T22:23:03.950Z,98878.77
2018-09-12T22:25:32.078Z,98875.06
2018-09-12T22:28:00.182Z,98887.02
2018-09-12T22:30:28.271Z,98889.93
2018-09-12T22:32:56.649Z,98897.80
2018-09-12T22:35:24.746Z,98892.69
2018-09-12T22:37:53.643Z,98892.46
2018-09-12T22:40:21.727Z,98892.92
2018-09-12T22:42:49.837Z,98894.37
2018-09-12T22:45:17.945Z,98895.28
2018-09-12T22:47:46.084Z,98892.00
2018-09-12T22:50:14.187Z,98892.04
2018-09-12T22:52:42.270Z,98888.37
2018-09-12T22:55:10.367Z,98884.91
2018-09-12T22:57:38.439Z,98892.80
2018-09-12T23:00:07.934Z,98891.23
2018-09-12T23:02:36.007Z,98887.94
2018-09-12T23:05:04.096Z,98883.26
2018-09-12T23:07:32.158Z,98880.13
2018-09-12T23:10:00.232Z,98883.08
2018-09-12T23:12:28.303Z,98878.45
2018-09-12T23:14:56.384Z,98874.44
2018-09-12T23:17:25.230Z,98870.41
2018-09-12T23:19:53.543Z,98874.81
2018-09-12T23:22:21.627Z,98874.84
2018-09-12T23:24:49.712Z,98877.55
2018-09-12T23:27:17.790Z,98883.69
2018-09-12T23:29:45.903Z,98890.17
2018-09-12T23:32:14.110Z,98879.20
2018-09-12T23:34:42.207Z,98871.54
2018-09-12T23:37:10.295Z,98872.81
2018-09-12T23:39:38.460Z,98870.42
2018-09-12T23:42:06.531Z,98868.53
2018-09-12T23:44:34.614Z,98864.77
2018-09-12T23:47:02.719Z,98870.30
2018-09-12T23:49:30.780Z,98868.03
2018-09-12T23:51:58.877Z,98873.55
2018-09-12T23:54:26.966Z,98881.50
2018-09-12T23:56:55.135Z,98877.84
2018-09-12T23:59:23.223Z,98881.39
